createdAt,value
2023-02-16T00:01:00.385Z,16.73
2023-02-16T00:03:26.836Z,17.50
2023-02-16T00:05:53.314Z,17.80
2023-02-16T00:08:19.843Z,16.20
2023-02-16T00:11:05.143Z,15.97
2023-02-16T00:13:53.063Z,18.27
2023-02-16T00:16:21.341Z,15.63
2023-02-16T00:18:48.288Z,17.33
2023-02-16T00:21:16.485Z,16.33
2023-02-16T00:23:43.150Z,17.20
2023-02-16T00:26:20.181Z,16.43
2023-02-16T00:28:48.899Z,17.07
2023-02-16T00:31:19.118Z,16.80
2023-02-16T00:33:45.995Z,16.93
2023-02-16T00:36:12.712Z,17.87
2023-02-16T00:38:39.119Z,17.07
2023-02-16T00:41:05.764Z,17.07
2023-02-16T00:43:32.393Z,16.73
2023-02-16T00:45:59.153Z,16.53
2023-02-16T00:48:25.646Z,17.53
2023-02-16T00:50:52.027Z,16.47
2023-02-16T00:53:18.419Z,17.30
2023-02-16T00:55:44.909Z,16.37
2023-02-16T00:58:23.573Z,17.53
2023-02-16T01:01:00.772Z,17.10
2023-02-16T01:03:28.909Z,16.90
2023-02-16T01:06:15.882Z,16.67
2023-02-16T01:09:00.716Z,16.70
2023-02-16T01:11:27.525Z,16.03
2023-02-16T01:13:54.833Z,18.07
2023-02-16T01:16:22.614Z,16.90
2023-02-16T01:18:49.444Z,16.63
2023-02-16T01:21:15.879Z,16.40
2023-02-16T01:23:42.290Z,15.90
2023-02-16T01:26:13.504Z,17.40
2023-02-16T01:28:39.928Z,18.17
2023-02-16T01:31:07.282Z,17.07
2023-02-16T01:33:33.746Z,18.07
2023-02-16T01:36:00.181Z,18.13
2023-02-16T01:38:28.046Z,18.67
2023-02-16T01:41:03.226Z,19.23
2023-02-16T01:43:42.445Z,19.10
2023-02-16T01:46:11.971Z,20.10
2023-02-16T01:48:38.522Z,17.80
2023-02-16T01:51:23.617Z,21.47
2023-02-16T01:54:04.532Z,20.70
2023-02-16T01:56:41.892Z,19.70
2023-02-16T01:59:20.319Z,17.40
2023-02-16T02:01:52.846Z,19.40
2023-02-16T02:04:47.209Z,19.07
2023-02-16T02:07:31.881Z,18.67
2023-02-16T02:10:14.182Z,22.73
2023-02-16T02:12:40.559Z,21.33
2023-02-16T02:15:09.245Z,18.00
2023-02-16T02:17:37.509Z,19.63
2023-02-16T02:20:03.929Z,19.07
2023-02-16T02:23:05.914Z,19.83
2023-02-16T02:25:55.839Z,18.30
2023-02-16T02:28:40.790Z,19.27
2023-02-16T02:31:22.250Z,19.37
2023-02-16T02:33:54.715Z,19.20
2023-02-16T02:36:21.187Z,19.53
2023-02-16T02:38:50.542Z,21.53
2023-02-16T02:41:24.086Z,20.40
2023-02-16T02:43:54.111Z,19.13
2023-02-16T02:46:25.010Z,22.07
2023-02-16T02:48:51.453Z,21.87
2023-02-16T02:51:30.255Z,22.80
2023-02-16T02:54:19.869Z,24.20
2023-02-16T02:57:07.265Z,23.90
2023-02-16T02:59:53.223Z,22.23
2023-02-16T03:02:21.863Z,21.10
2023-02-16T03:04:48.551Z,25.50
2023-02-16T03:07:15.160Z,25.50
2023-02-16T03:09:41.598Z,24.20
2023-02-16T03:12:27.271Z,27.27
2023-02-16T03:14:55.799Z,27.40
2023-02-16T03:17:42.561Z,28.70
2023-02-16T03:20:29.807Z,28.60
2023-02-16T03:23:15.229Z,27.93
2023-02-16T03:26:01.084Z,27.90
2023-02-16T03:28:47.809Z,27.13
2023-02-16T03:31:16.195Z,27.93
2023-02-16T03:33:43.037Z,27.27
2023-02-16T03:36:09.783Z,26.60
2023-02-16T03:38:36.234Z,28.27
2023-02-16T03:41:04.042Z,30.60
2023-02-16T03:43:30.831Z,28.63
2023-02-16T03:45:57.365Z,28.10
2023-02-16T03:48:23.901Z,30.13
2023-02-16T03:50:50.368Z,30.27
2023-02-16T03:53:18.290Z,28.17
2023-02-16T03:55:46.191Z,28.73
2023-02-16T03:58:13.934Z,28.90
2023-02-16T04:00:40.859Z,28.93
2023-02-16T04:03:08.921Z,28.83
2023-02-16T04:05:35.382Z,28.30
2023-02-16T04:08:01.884Z,28.30
2023-02-16T04:10:28.437Z,29.70
2023-02-16T04:12:54.896Z,30.87
2023-02-16T04:15:22.855Z,26.87
2023-02-16T04:17:49.614Z,27.67
2023-02-16T04:20:17.772Z,28.23
2023-02-16T04:22:44.558Z,25.77
2023-02-16T04:25:11.355Z,27.23
2023-02-16T04:27:39.117Z,27.57
2023-02-16T04:30:06.418Z,27.97
2023-02-16T04:32:33.329Z,28.20
2023-02-16T04:34:59.946Z,28.10
2023-02-16T04:37:26.352Z,27.80
2023-02-16T04:39:52.782Z,28.37
2023-02-16T04:42:19.409Z,28.60
2023-02-16T04:44:45.823Z,29.30
2023-02-16T04:47:12.168Z,25.80
2023-02-16T04:49:38.514Z,44.17
2023-02-16T04:52:05.426Z,54.17
2023-02-16T04:54:32.330Z,40.93
2023-02-16T04:56:59.279Z,34.13
2023-02-16T04:59:25.793Z,30.23
2023-02-16T05:01:53.347Z,28.83
2023-02-16T05:04:19.877Z,27.40
2023-02-16T05:06:46.309Z,25.53
2023-02-16T05:09:12.804Z,29.03
2023-02-16T05:11:57.792Z,29.03
2023-02-16T05:14:45.152Z,27.63
2023-02-16T05:17:18.847Z,27.23
2023-02-16T05:19:46.607Z,24.97
2023-02-16T05:22:13.546Z,26.93
2023-02-16T05:24:40.069Z,26.27
2023-02-16T05:27:09.451Z,24.57
2023-02-16T05:29:35.857Z,24.90
2023-02-16T05:32:04.574Z,26.43
2023-02-16T05:34:31.252Z,26.33
2023-02-16T05:36:57.658Z,23.87
2023-02-16T05:39:24.049Z,25.10
2023-02-16T05:41:50.563Z,26.13
2023-02-16T05:44:17.380Z,25.33
2023-02-16T05:46:43.870Z,24.73
2023-02-16T05:49:10.598Z,26.97
2023-02-16T05:51:37.149Z,27.77
2023-02-16T05:54:03.775Z,25.57
2023-02-16T05:56:30.205Z,26.63
2023-02-16T05:58:58.044Z,26.53
2023-02-16T06:01:24.501Z,26.13
2023-02-16T06:03:51.241Z,25.83
2023-02-16T06:06:17.926Z,25.07
2023-02-16T06:08:44.425Z,27.47
2023-02-16T06:11:31.408Z,25.93
2023-02-16T06:13:59.670Z,26.40
2023-02-16T06:16:27.266Z,27.43
2023-02-16T06:18:54.303Z,26.87
2023-02-16T06:21:21.209Z,27.07
2023-02-16T06:23:47.993Z,26.90
2023-02-16T06:26:15.039Z,27.07
2023-02-16T06:28:41.483Z,27.20
2023-02-16T06:31:08.305Z,27.37
2023-02-16T06:33:35.120Z,26.57
2023-02-16T06:36:01.900Z,28.93
2023-02-16T06:38:28.316Z,26.17
2023-02-16T06:40:55.012Z,26.60
2023-02-16T06:43:21.789Z,27.83
2023-02-16T06:45:48.169Z,27.73
2023-02-16T06:48:14.576Z,27.30
2023-02-16T06:50:40.998Z,27.60
2023-02-16T06:53:07.350Z,26.37
2023-02-16T06:55:36.826Z,27.73
2023-02-16T06:58:03.964Z,26.97
2023-02-16T07:00:30.553Z,29.03
2023-02-16T07:02:57.076Z,27.13
2023-02-16T07:05:23.785Z,28.10
2023-02-16T07:07:50.210Z,27.73
2023-02-16T07:10:16.669Z,29.37
2023-02-16T07:12:43.268Z,29.60
2023-02-16T07:15:09.708Z,28.23
2023-02-16T07:17:36.385Z,27.87
2023-02-16T07:20:04.599Z,29.07
2023-02-16T07:22:31.133Z,27.00
2023-02-16T07:24:58.954Z,27.70
2023-02-16T07:27:25.677Z,29.67
2023-02-16T07:29:52.155Z,30.47
2023-02-16T07:32:18.740Z,29.77
2023-02-16T07:34:48.218Z,29.30
2023-02-16T07:37:14.577Z,32.50
2023-02-16T07:39:40.948Z,28.73
2023-02-16T07:42:07.661Z,27.40
2023-02-16T07:44:34.060Z,25.87
2023-02-16T07:47:00.447Z,29.87
2023-02-16T07:49:26.825Z,29.17
2023-02-16T07:51:53.245Z,29.03
2023-02-16T07:54:19.686Z,29.53
2023-02-16T07:56:47.389Z,29.50
2023-02-16T07:59:15.582Z,28.60
2023-02-16T08:01:42.552Z,28.80
2023-02-16T08:04:08.999Z,29.20
2023-02-16T08:06:35.640Z,27.40
2023-02-16T08:09:02.038Z,28.00
2023-02-16T08:11:28.554Z,28.93
2023-02-16T08:13:54.964Z,29.27
2023-02-16T08:16:23.506Z,28.40
2023-02-16T08:18:50.861Z,27.77
2023-02-16T08:21:18.793Z,27.90
2023-02-16T08:23:47.893Z,28.23
2023-02-16T08:26:17.207Z,29.03
2023-02-16T08:28:47.118Z,28.93
2023-02-16T08:31:14.548Z,29.23
2023-02-16T08:33:41.261Z,28.63
2023-02-16T08:36:09.741Z,27.17
2023-02-16T08:38:36.444Z,26.93
2023-02-16T08:41:02.997Z,28.57
2023-02-16T08:43:29.550Z,27.67
2023-02-16T08:45:56.000Z,29.50
2023-02-16T08:48:23.294Z,25.43
2023-02-16T08:50:53.733Z,28.53
2023-02-16T08:53:24.591Z,26.53
2023-02-16T08:55:51.786Z,28.00
2023-02-16T08:58:18.820Z,27.17
2023-02-16T09:00:45.522Z,28.30
2023-02-16T09:03:11.875Z,26.07
2023-02-16T09:05:38.297Z,26.27
2023-02-16T09:08:04.703Z,27.37
2023-02-16T09:10:31.047Z,27.57
2023-02-16T09:12:58.184Z,26.70
2023-02-16T09:15:24.580Z,27.37
2023-02-16T09:17:50.956Z,27.53
2023-02-16T09:20:17.518Z,27.10
2023-02-16T09:25:11.615Z,26.43
2023-02-16T09:27:37.969Z,27.33
2023-02-16T09:30:06.804Z,27.57
2023-02-16T09:32:33.690Z,28.33
2023-02-16T09:35:00.795Z,27.33
2023-02-16T09:37:27.176Z,28.40
2023-02-16T09:39:53.584Z,27.17
2023-02-16T09:42:24.568Z,26.13
2023-02-16T09:44:56.345Z,26.07
2023-02-16T09:47:25.763Z,26.73
2023-02-16T09:49:53.912Z,26.53
2023-02-16T09:52:27.800Z,28.57
2023-02-16T09:54:58.214Z,28.00
2023-02-16T09:57:48.224Z,27.60
2023-02-16T10:00:33.220Z,27.47
2023-02-16T10:03:18.415Z,26.40
2023-02-16T10:05:44.787Z,28.83
2023-02-16T10:08:14.604Z,26.10
2023-02-16T10:10:41.044Z,27.20
2023-02-16T10:13:26.115Z,27.63
2023-02-16T10:15:54.209Z,27.60
2023-02-16T10:18:46.774Z,28.43
2023-02-16T10:21:15.492Z,26.83
2023-02-16T10:23:47.751Z,25.97
2023-02-16T10:26:14.071Z,25.53
2023-02-16T10:28:46.630Z,28.23
2023-02-16T10:31:22.101Z,27.57
2023-02-16T10:33:55.794Z,27.53
2023-02-16T10:36:37.574Z,29.53
2023-02-16T10:39:22.752Z,28.60
2023-02-16T10:42:09.915Z,28.33
2023-02-16T10:44:41.503Z,27.87
2023-02-16T10:47:23.701Z,28.57
2023-02-16T10:49:50.628Z,28.03
2023-02-16T10:52:17.373Z,27.97
2023-02-16T10:54:43.823Z,28.67
2023-02-16T10:59:57.907Z,28.00
2023-02-16T11:02:28.971Z,29.03
2023-02-16T11:04:56.458Z,28.30
2023-02-16T11:07:24.247Z,29.43
2023-02-16T11:09:55.357Z,27.13
2023-02-16T11:12:32.634Z,28.60
2023-02-16T11:15:23.361Z,28.33
2023-02-16T11:18:04.797Z,27.83
2023-02-16T11:20:51.195Z,27.77
2023-02-16T11:23:17.639Z,28.97
2023-02-16T11:25:58.227Z,29.03
2023-02-16T11:28:32.352Z,29.60
2023-02-16T11:31:12.607Z,27.70
2023-02-16T11:33:40.369Z,28.30
2023-02-16T11:36:29.252Z,30.10
2023-02-16T11:39:01.161Z,29.50
2023-02-16T11:41:28.751Z,27.13
2023-02-16T11:43:56.005Z,30.33
2023-02-16T11:46:22.940Z,29.60
2023-02-16T11:48:49.580Z,28.40
2023-02-16T11:51:28.446Z,29.57
2023-02-16T11:54:00.263Z,31.80
2023-02-16T11:56:28.364Z,29.47
2023-02-16T11:59:15.228Z,29.90
2023-02-16T12:01:50.679Z,28.63
2023-02-16T12:04:29.342Z,28.47
2023-02-16T12:07:17.461Z,30.00
2023-02-16T12:09:56.070Z,28.63
2023-02-16T12:12:34.892Z,30.50
2023-02-16T12:15:21.276Z,30.37
2023-02-16T12:17:56.859Z,29.43
2023-02-16T12:20:45.962Z,31.17
2023-02-16T12:23:23.204Z,33.30
2023-02-16T12:26:10.211Z,33.87
2023-02-16T12:28:39.729Z,31.97
2023-02-16T12:31:24.684Z,34.10
2023-02-16T12:34:09.771Z,31.83
2023-02-16T12:36:59.783Z,34.00
2023-02-16T12:39:41.263Z,32.77
2023-02-16T12:42:13.782Z,34.83
2023-02-16T12:44:48.754Z,33.50
2023-02-16T12:47:36.596Z,34.77
2023-02-16T12:50:27.796Z,32.80
2023-02-16T12:52:56.096Z,35.67
2023-02-16T12:55:32.844Z,31.43
2023-02-16T12:58:02.331Z,36.20
2023-02-16T13:00:28.748Z,36.23
2023-02-16T13:03:05.784Z,34.50
2023-02-16T13:05:35.974Z,35.10
2023-02-16T13:08:06.508Z,34.83
2023-02-16T13:10:46.052Z,34.70
2023-02-16T13:13:19.150Z,38.03
2023-02-16T13:15:51.380Z,36.17
2023-02-16T13:18:22.686Z,38.37
2023-02-16T13:20:52.906Z,37.87
2023-02-16T13:23:19.275Z,38.03
2023-02-16T13:25:46.077Z,40.60
2023-02-16T13:28:24.961Z,37.93
2023-02-16T13:31:12.555Z,38.90
2023-02-16T13:33:58.080Z,36.67
2023-02-16T13:36:28.095Z,36.83
2023-02-16T13:39:13.370Z,38.30
2023-02-16T13:41:48.878Z,35.60
2023-02-16T13:44:16.867Z,37.33
2023-02-16T13:46:46.839Z,33.17
2023-02-16T13:49:46.480Z,34.17
2023-02-16T13:52:31.395Z,32.70
2023-02-16T13:55:03.271Z,33.93
2023-02-16T13:57:52.087Z,34.10
2023-02-16T14:00:32.748Z,35.30
2023-02-16T14:02:59.402Z,34.60
2023-02-16T14:05:28.189Z,37.03
2023-02-16T14:08:20.852Z,34.93
2023-02-16T14:10:53.538Z,36.30
2023-02-16T14:13:22.551Z,36.07
2023-02-16T14:15:50.832Z,34.30
2023-02-16T14:18:30.330Z,34.13
2023-02-16T14:21:04.180Z,37.20
2023-02-16T14:23:34.599Z,37.93
2023-02-16T14:26:05.695Z,37.23
2023-02-16T14:28:32.289Z,36.20
2023-02-16T14:31:26.201Z,36.80
2023-02-16T14:33:52.601Z,36.40
2023-02-16T14:36:20.258Z,35.43
2023-02-16T14:38:47.606Z,36.83
2023-02-16T14:41:15.845Z,33.17
2023-02-16T14:43:43.943Z,34.70
2023-02-16T14:46:10.502Z,33.93
2023-02-16T14:48:45.754Z,36.37
2023-02-16T14:51:18.251Z,33.67
2023-02-16T14:53:51.604Z,33.40
2023-02-16T14:56:18.472Z,33.30
2023-02-16T14:58:44.896Z,37.10
2023-02-16T15:01:12.662Z,34.30
2023-02-16T15:03:40.822Z,32.30
2023-02-16T15:06:08.126Z,33.10
2023-02-16T15:08:36.950Z,34.20
2023-02-16T15:11:14.314Z,34.13
2023-02-16T15:13:40.815Z,33.47
2023-02-16T15:16:13.921Z,33.83
2023-02-16T15:18:42.220Z,32.77
2023-02-16T15:21:16.254Z,34.37
2023-02-16T15:23:48.014Z,34.97
2023-02-16T15:26:20.025Z,40.20
2023-02-16T15:28:52.526Z,32.97
2023-02-16T15:31:19.859Z,33.20
2023-02-16T15:33:55.651Z,34.90
2023-02-16T15:36:31.765Z,35.20
2023-02-16T15:39:03.007Z,32.83
2023-02-16T15:41:31.252Z,35.93
2023-02-16T15:43:58.905Z,35.97
2023-02-16T15:46:31.695Z,36.10
2023-02-16T15:48:58.728Z,35.63
2023-02-16T15:51:25.385Z,34.37
2023-02-16T15:53:53.789Z,35.27
2023-02-16T15:56:28.084Z,36.90
2023-02-16T15:58:55.623Z,37.17
2023-02-16T16:01:31.647Z,39.73
2023-02-16T16:04:02.501Z,39.67
2023-02-16T16:06:36.811Z,37.60
2023-02-16T16:09:06.267Z,39.83
2023-02-16T16:11:33.375Z,40.47
2023-02-16T16:14:00.136Z,40.63
2023-02-16T16:16:27.285Z,41.90
2023-02-16T16:18:54.084Z,43.90
2023-02-16T16:21:23.171Z,45.17
2023-02-16T16:23:54.273Z,45.60
2023-02-16T16:26:21.843Z,44.73
2023-02-16T16:28:48.196Z,45.40
2023-02-16T16:31:20.635Z,43.33
2023-02-16T16:33:54.411Z,47.30
2023-02-16T16:36:21.352Z,44.20
2023-02-16T16:38:48.099Z,43.73
2023-02-16T16:41:28.666Z,43.83
2023-02-16T16:43:57.289Z,44.80
2023-02-16T16:46:25.245Z,42.83
2023-02-16T16:48:52.896Z,40.47
2023-02-16T16:51:21.704Z,41.43
2023-02-16T16:53:57.331Z,40.37
2023-02-16T16:56:24.206Z,41.50
2023-02-16T16:58:51.752Z,38.87
2023-02-16T17:01:18.644Z,40.00
2023-02-16T17:03:45.154Z,37.20
2023-02-16T17:06:11.680Z,37.00
2023-02-16T17:08:38.171Z,38.70
2023-02-16T17:11:04.781Z,33.17
2023-02-16T17:13:31.716Z,32.03
2023-02-16T17:16:07.458Z,33.80
2023-02-16T17:18:34.051Z,32.80
2023-02-16T17:21:00.461Z,32.70
2023-02-16T17:23:29.440Z,30.43
2023-02-16T17:25:55.903Z,30.97
2023-02-16T17:28:24.906Z,29.93
2023-02-16T17:30:51.464Z,31.37
2023-02-16T17:33:17.993Z,29.93
2023-02-16T17:35:44.469Z,32.13
2023-02-16T17:38:12.537Z,31.77
2023-02-16T17:40:41.262Z,31.23
2023-02-16T17:43:14.954Z,32.93
2023-02-16T17:45:41.742Z,31.60
2023-02-16T17:48:10.955Z,33.07
2023-02-16T17:50:37.665Z,32.83
2023-02-16T17:53:04.070Z,30.53
2023-02-16T17:55:30.509Z,34.10
2023-02-16T17:57:58.222Z,31.63
2023-02-16T18:00:24.744Z,32.00
2023-02-16T18:02:51.223Z,34.53
2023-02-16T18:05:17.727Z,32.10
2023-02-16T18:07:44.220Z,33.70
2023-02-16T18:10:16.534Z,34.17
2023-02-16T18:12:42.934Z,35.90
2023-02-16T18:15:09.657Z,35.40
2023-02-16T18:17:36.217Z,35.07
2023-02-16T18:20:04.405Z,35.00
2023-02-16T18:22:31.299Z,35.33
2023-02-16T18:24:57.727Z,34.60
2023-02-16T18:27:29.407Z,36.97
2023-02-16T18:29:56.013Z,36.87
2023-02-16T18:32:22.534Z,36.70
2023-02-16T18:34:49.000Z,36.27
2023-02-16T18:37:17.096Z,34.53
2023-02-16T18:39:43.579Z,33.90
2023-02-16T18:42:10.390Z,35.30
2023-02-16T18:44:36.870Z,35.80
2023-02-16T18:47:03.433Z,34.63
2023-02-16T18:49:29.900Z,32.17
2023-02-16T18:51:56.252Z,31.60
2023-02-16T18:54:22.636Z,33.40
2023-02-16T18:56:49.043Z,33.63
2023-02-16T18:59:15.565Z,34.40
2023-02-16T19:01:42.270Z,31.80
2023-02-16T19:04:08.677Z,31.27
2023-02-16T19:06:35.111Z,33.07
2023-02-16T19:09:01.551Z,33.00
2023-02-16T19:11:32.767Z,31.40
2023-02-16T19:13:59.231Z,35.07
2023-02-16T19:16:25.642Z,33.77
2023-02-16T19:18:52.035Z,33.63
2023-02-16T19:21:18.430Z,35.30
2023-02-16T19:23:45.603Z,32.77
2023-02-16T19:26:13.348Z,34.03
2023-02-16T19:28:40.291Z,32.53
2023-02-16T19:31:08.517Z,35.00
2023-02-16T19:33:35.084Z,35.80
2023-02-16T19:36:03.221Z,36.17
2023-02-16T19:38:29.978Z,36.53
2023-02-16T19:40:56.641Z,39.73
2023-02-16T19:43:23.209Z,37.17
2023-02-16T19:45:49.843Z,39.23
2023-02-16T19:48:16.460Z,38.27
2023-02-16T19:50:43.034Z,41.27
2023-02-16T19:53:09.657Z,41.80
2023-02-16T19:55:39.530Z,40.83
2023-02-16T19:58:05.939Z,41.00
2023-02-16T20:00:32.420Z,36.80
2023-02-16T20:02:58.928Z,38.33
2023-02-16T20:05:25.435Z,39.80
2023-02-16T20:07:52.053Z,39.23
2023-02-16T20:10:21.098Z,38.13
2023-02-16T20:12:47.497Z,40.33
2023-02-16T20:15:17.620Z,39.23
2023-02-16T20:17:46.350Z,39.50
2023-02-16T20:20:12.973Z,40.60
2023-02-16T20:22:39.648Z,38.13
2023-02-16T20:25:06.238Z,37.63
2023-02-16T20:27:33.012Z,35.73
2023-02-16T20:30:01.765Z,34.43
2023-02-16T20:32:28.376Z,37.83
2023-02-16T20:34:54.762Z,37.07
2023-02-16T20:37:22.008Z,36.53
2023-02-16T20:39:48.436Z,38.80
2023-02-16T20:42:15.005Z,36.47
2023-02-16T20:44:41.478Z,42.37
2023-02-16T20:47:10.244Z,39.53
2023-02-16T20:49:37.047Z,40.33
2023-02-16T20:52:03.819Z,40.57
2023-02-16T20:54:30.353Z,41.30
2023-02-16T20:56:56.904Z,39.57
2023-02-16T20:59:23.411Z,40.00
2023-02-16T21:01:52.322Z,43.67
2023-02-16T21:04:19.612Z,42.83
2023-02-16T21:06:46.389Z,43.53
2023-02-16T21:09:13.093Z,45.50
2023-02-16T21:11:40.136Z,43.77
2023-02-16T21:14:07.554Z,47.57
2023-02-16T21:16:34.317Z,44.63
2023-02-16T21:19:00.804Z,45.47
2023-02-16T21:21:27.229Z,45.70
2023-02-16T21:23:54.709Z,45.77
2023-02-16T21:26:22.481Z,45.03
2023-02-16T21:28:49.062Z,45.73
2023-02-16T21:31:20.746Z,45.70
2023-02-16T21:33:47.597Z,45.77
2023-02-16T21:36:15.357Z,45.83
2023-02-16T21:38:42.194Z,44.67
2023-02-16T21:41:25.016Z,42.83
2023-02-16T21:43:54.371Z,44.10
2023-02-16T21:46:21.116Z,41.50
2023-02-16T21:48:48.140Z,45.60
2023-02-16T21:51:16.134Z,45.33
2023-02-16T21:53:42.884Z,40.83
2023-02-16T21:56:19.437Z,42.40
2023-02-16T21:58:47.885Z,44.50
2023-02-16T22:01:14.766Z,44.17
2023-02-16T22:03:41.345Z,44.57
2023-02-16T22:06:08.336Z,43.20
2023-02-16T22:08:36.869Z,42.27
2023-02-16T22:11:13.166Z,47.33
2023-02-16T22:13:40.216Z,45.03
2023-02-16T22:16:14.149Z,42.60
2023-02-16T22:18:40.834Z,44.20
2023-02-16T22:21:07.735Z,44.63
2023-02-16T22:23:34.547Z,40.87
2023-02-16T22:26:01.146Z,42.87
2023-02-16T22:28:27.560Z,40.30
2023-02-16T22:30:54.034Z,41.77
2023-02-16T22:33:20.397Z,40.57
2023-02-16T22:35:46.822Z,40.03
2023-02-16T22:38:13.394Z,41.57
2023-02-16T22:40:39.980Z,42.30
2023-02-16T22:43:06.369Z,42.77
2023-02-16T22:45:34.566Z,40.53
2023-02-16T22:48:01.037Z,39.37
2023-02-16T22:50:27.441Z,38.90
2023-02-16T22:52:54.111Z,37.47
2023-02-16T22:55:20.452Z,39.43
2023-02-16T22:57:47.237Z,36.63
2023-02-16T23:00:15.201Z,39.33
2023-02-16T23:02:41.593Z,37.83
2023-02-16T23:05:08.123Z,37.03
2023-02-16T23:07:35.106Z,37.53
2023-02-16T23:10:01.747Z,38.03
2023-02-16T23:12:28.268Z,37.50
2023-02-16T23:14:54.640Z,39.30
2023-02-16T23:17:21.105Z,37.07
2023-02-16T23:19:49.075Z,33.77
2023-02-16T23:22:15.483Z,35.80
2023-02-16T23:24:41.950Z,37.30
2023-02-16T23:27:08.435Z,37.33
2023-02-16T23:29:34.967Z,37.53
2023-02-16T23:32:01.386Z,36.17
2023-02-16T23:34:27.799Z,34.80
2023-02-16T23:36:55.483Z,36.57
2023-02-16T23:39:21.918Z,37.97
2023-02-16T23:41:48.331Z,37.93
2023-02-16T23:44:14.962Z,38.23
2023-02-16T23:46:41.381Z,38.27
2023-02-16T23:49:08.089Z,37.13
2023-02-16T23:51:34.612Z,37.07
2023-02-16T23:54:01.067Z,37.83
2023-02-16T23:56:28.146Z,37.47
2023-02-16T23:58:59.060Z,38.67
